sensor_id;sensor_type;location;lat;lon;timestamp;pressure;altitude;pressure_sealevel;temperature;humidity
69153;BME280;56261;51.580;4.578;2023-05-23T00:02:03;102128.72;;;13.91;100.00
69153;BME280;56261;51.580;4.578;2023-05-23T00:04:32;102118.88;;;14.00;100.00
69153;BME280;56261;51.580;4.578;2023-05-23T00:06:57;102116.88;;;14.02;100.00
69153;BME280;56261;51.580;4.578;2023-05-23T00:09:23;102120.88;;;14.06;100.00
69153;BME280;56261;51.580;4.578;2023-05-23T00:11:48;102129.06;;;13.97;100.00
69153;BME280;56261;51.580;4.578;2023-05-23T00:14:14;102137.34;;;13.77;100.00
69153;BME280;56261;51.580;4.578;2023-05-23T00:16:40;102134.28;;;13.72;100.00
69153;BME280;56261;51.580;4.578;2023-05-23T00:19:07;102141.16;;;13.66;100.00
69153;BME280;56261;51.580;4.578;2023-05-23T00:21:33;102140.06;;;13.59;100.00
69153;BME280;56261;51.580;4.578;2023-05-23T00:23:58;102149.34;;;13.65;100.00
69153;BME280;56261;51.580;4.578;2023-05-23T00:26:24;102146.78;;;13.55;100.00
69153;BME280;56261;51.580;4.578;2023-05-23T00:28:49;102143.13;;;13.38;100.00
69153;BME280;56261;51.580;4.578;2023-05-23T00:31:15;102160.81;;;13.31;100.00
69153;BME280;56261;51.580;4.578;2023-05-23T00:33:40;102159.66;;;13.34;100.00
69153;BME280;56261;51.580;4.578;2023-05-23T00:36:05;102158.59;;;13.44;100.00
69153;BME280;56261;51.580;4.578;2023-05-23T00:38:31;102158.47;;;13.54;100.00
69153;BME280;56261;51.580;4.578;2023-05-23T00:40:57;102145.00;;;13.46;100.00
69153;BME280;56261;51.580;4.578;2023-05-23T00:43:22;102155.25;;;13.50;100.00
69153;BME280;56261;51.580;4.578;2023-05-23T00:45:48;102166.16;;;13.49;100.00
69153;BME280;56261;51.580;4.578;2023-05-23T00:48:13;102173.91;;;13.34;100.00
69153;BME280;56261;51.580;4.578;2023-05-23T00:50:40;102176.78;;;13.23;100.00
69153;BME280;56261;51.580;4.578;2023-05-23T00:53:05;102176.03;;;13.13;100.00
69153;BME280;56261;51.580;4.578;2023-05-23T00:55:31;102168.38;;;13.00;100.00
69153;BME280;56261;51.580;4.578;2023-05-23T00:57:57;102169.31;;;12.91;100.00
69153;BME280;56261;51.580;4.578;2023-05-23T01:00:26;102171.75;;;12.84;100.00
69153;BME280;56261;51.580;4.578;2023-05-23T01:02:53;102172.03;;;12.81;100.00
69153;BME280;56261;51.580;4.578;2023-05-23T01:05:19;102169.81;;;12.76;100.00
69153;BME280;56261;51.580;4.578;2023-05-23T01:07:50;102160.25;;;12.92;100.00
69153;BME280;56261;51.580;4.578;2023-05-23T01:10:21;102154.06;;;12.91;100.00
69153;BME280;56261;51.580;4.578;2023-05-23T01:13:16;102159.66;;;12.80;100.00
69153;BME280;56261;51.580;4.578;2023-05-23T01:15:50;102172.63;;;12.75;100.00
69153;BME280;56261;51.580;4.578;2023-05-23T01:18:42;102179.75;;;12.66;100.00
69153;BME280;56261;51.580;4.578;2023-05-23T01:21:17;102175.63;;;12.72;100.00
69153;BME280;56261;51.580;4.578;2023-05-23T01:26:55;102186.44;;;12.80;100.00
69153;BME280;56261;51.580;4.578;2023-05-23T01:29:31;102180.53;;;12.76;100.00
69153;BME280;56261;51.580;4.578;2023-05-23T01:31:58;102177.22;;;12.64;100.00
69153;BME280;56261;51.580;4.578;2023-05-23T01:34:24;102179.06;;;12.64;100.00
69153;BME280;56261;51.580;4.578;2023-05-23T01:36:53;102187.34;;;12.71;100.00
69153;BME280;56261;51.580;4.578;2023-05-23T01:39:22;102186.47;;;12.70;100.00
69153;BME280;56261;51.580;4.578;2023-05-23T01:41:49;102183.78;;;12.70;100.00
69153;BME280;56261;51.580;4.578;2023-05-23T01:44:15;102185.72;;;12.78;100.00
69153;BME280;56261;51.580;4.578;2023-05-23T01:46:42;102166.53;;;12.82;100.00
69153;BME280;56261;51.580;4.578;2023-05-23T01:49:10;102179.38;;;12.79;100.00
69153;BME280;56261;51.580;4.578;2023-05-23T01:51:37;102173.50;;;12.75;100.00
69153;BME280;56261;51.580;4.578;2023-05-23T01:54:02;102170.13;;;12.91;100.00
69153;BME280;56261;51.580;4.578;2023-05-23T01:56:28;102176.19;;;12.93;100.00
69153;BME280;56261;51.580;4.578;2023-05-23T01:58:54;102176.56;;;12.98;100.00
69153;BME280;56261;51.580;4.578;2023-05-23T02:01:20;102174.94;;;12.87;100.00
69153;BME280;56261;51.580;4.578;2023-05-23T02:03:46;102189.03;;;12.90;100.00
69153;BME280;56261;51.580;4.578;2023-05-23T02:06:11;102195.78;;;12.94;100.00
69153;BME280;56261;51.580;4.578;2023-05-23T02:08:37;102190.78;;;12.99;100.00
69153;BME280;56261;51.580;4.578;2023-05-23T02:11:02;102186.34;;;13.07;100.00
69153;BME280;56261;51.580;4.578;2023-05-23T02:13:28;102200.44;;;13.09;100.00
69153;BME280;56261;51.580;4.578;2023-05-23T02:15:53;102200.44;;;13.09;100.00
69153;BME280;56261;51.580;4.578;2023-05-23T02:18:19;102202.53;;;13.16;100.00
69153;BME280;56261;51.580;4.578;2023-05-23T02:20:45;102206.03;;;13.16;100.00
69153;BME280;56261;51.580;4.578;2023-05-23T02:23:11;102203.44;;;13.24;100.00
69153;BME280;56261;51.580;4.578;2023-05-23T02:25:36;102201.03;;;13.21;100.00
69153;BME280;56261;51.580;4.578;2023-05-23T02:28:01;102203.00;;;13.29;100.00
69153;BME280;56261;51.580;4.578;2023-05-23T02:30:27;102200.00;;;13.32;100.00
69153;BME280;56261;51.580;4.578;2023-05-23T02:32:52;102205.22;;;13.34;100.00
69153;BME280;56261;51.580;4.578;2023-05-23T02:35:18;102204.38;;;13.33;100.00
69153;BME280;56261;51.580;4.578;2023-05-23T02:37:43;102207.13;;;13.41;100.00
69153;BME280;56261;51.580;4.578;2023-05-23T02:40:09;102208.22;;;13.48;100.00
69153;BME280;56261;51.580;4.578;2023-05-23T02:42:34;102205.56;;;13.57;100.00
69153;BME280;56261;51.580;4.578;2023-05-23T02:45:00;102201.03;;;13.57;100.00
69153;BME280;56261;51.580;4.578;2023-05-23T02:47:25;102203.06;;;13.55;100.00
69153;BME280;56261;51.580;4.578;2023-05-23T02:49:51;102194.81;;;13.48;100.00
69153;BME280;56261;51.580;4.578;2023-05-23T02:52:16;102199.06;;;13.59;100.00
69153;BME280;56261;51.580;4.578;2023-05-23T02:54:42;102194.69;;;13.58;100.00
69153;BME280;56261;51.580;4.578;2023-05-23T02:57:07;102194.56;;;13.60;100.00
69153;BME280;56261;51.580;4.578;2023-05-23T02:59:33;102189.00;;;13.61;100.00
69153;BME280;56261;51.580;4.578;2023-05-23T03:01:58;102200.50;;;13.72;100.00
69153;BME280;56261;51.580;4.578;2023-05-23T03:04:24;102210.16;;;13.64;100.00
69153;BME280;56261;51.580;4.578;2023-05-23T03:06:49;102213.63;;;13.57;100.00
69153;BME280;56261;51.580;4.578;2023-05-23T03:09:18;102204.59;;;13.58;100.00
69153;BME280;56261;51.580;4.578;2023-05-23T03:11:44;102207.53;;;13.46;100.00
69153;BME280;56261;51.580;4.578;2023-05-23T03:14:09;102203.00;;;13.47;100.00
69153;BME280;56261;51.580;4.578;2023-05-23T03:16:35;102212.66;;;13.40;100.00
69153;BME280;56261;51.580;4.578;2023-05-23T03:19:00;102213.34;;;13.42;100.00
69153;BME280;56261;51.580;4.578;2023-05-23T03:21:25;102218.59;;;13.52;100.00
69153;BME280;56261;51.580;4.578;2023-05-23T03:23:51;102223.13;;;13.51;100.00
69153;BME280;56261;51.580;4.578;2023-05-23T03:26:16;102217.22;;;13.47;100.00
69153;BME280;56261;51.580;4.578;2023-05-23T03:28:42;102225.03;;;13.41;100.00
69153;BME280;56261;51.580;4.578;2023-05-23T03:31:07;102226.94;;;13.31;100.00
69153;BME280;56261;51.580;4.578;2023-05-23T03:33:32;102223.19;;;13.41;100.00
69153;BME280;56261;51.580;4.578;2023-05-23T03:35:58;102233.00;;;13.33;100.00
69153;BME280;56261;51.580;4.578;2023-05-23T03:38:23;102226.66;;;13.34;100.00
69153;BME280;56261;51.580;4.578;2023-05-23T03:40:49;102212.31;;;13.25;100.00
69153;BME280;56261;51.580;4.578;2023-05-23T03:43:14;102231.19;;;13.33;100.00
69153;BME280;56261;51.580;4.578;2023-05-23T03:45:39;102237.25;;;13.35;100.00
69153;BME280;56261;51.580;4.578;2023-05-23T03:48:05;102240.91;;;13.34;100.00
69153;BME280;56261;51.580;4.578;2023-05-23T03:50:31;102242.63;;;13.25;100.00
69153;BME280;56261;51.580;4.578;2023-05-23T03:52:56;102243.00;;;13.13;100.00
69153;BME280;56261;51.580;4.578;2023-05-23T03:55:21;102239.09;;;13.07;100.00
69153;BME280;56261;51.580;4.578;2023-05-23T03:57:49;102248.53;;;13.11;100.00
69153;BME280;56261;51.580;4.578;2023-05-23T04:00:15;102243.31;;;13.09;100.00
69153;BME280;56261;51.580;4.578;2023-05-23T04:02:41;102249.81;;;13.07;100.00
69153;BME280;56261;51.580;4.578;2023-05-23T04:05:06;102258.31;;;13.02;100.00
69153;BME280;56261;51.580;4.578;2023-05-23T04:07:33;102257.59;;;13.00;100.00
69153;BME280;56261;51.580;4.578;2023-05-23T04:10:02;102261.81;;;13.03;100.00
69153;BME280;56261;51.580;4.578;2023-05-23T04:12:28;102255.84;;;12.91;100.00
69153;BME280;56261;51.580;4.578;2023-05-23T04:14:56;102256.22;;;12.96;100.00
69153;BME280;56261;51.580;4.578;2023-05-23T04:17:24;102254.13;;;12.90;100.00
69153;BME280;56261;51.580;4.578;2023-05-23T04:19:50;102265.53;;;12.92;100.00
69153;BME280;56261;51.580;4.578;2023-05-23T04:22:16;102257.25;;;12.85;100.00
69153;BME280;56261;51.580;4.578;2023-05-23T04:24:42;102265.53;;;12.92;100.00
69153;BME280;56261;51.580;4.578;2023-05-23T04:27:07;102266.59;;;12.81;100.00
69153;BME280;56261;51.580;4.578;2023-05-23T04:29:33;102277.91;;;12.75;100.00
69153;BME280;56261;51.580;4.578;2023-05-23T04:32:00;102279.31;;;12.79;100.00
69153;BME280;56261;51.580;4.578;2023-05-23T04:34:26;102282.75;;;12.90;100.00
69153;BME280;56261;51.580;4.578;2023-05-23T04:36:51;102272.81;;;12.82;100.00
69153;BME280;56261;51.580;4.578;2023-05-23T04:39:18;102290.00;;;12.79;100.00
69153;BME280;56261;51.580;4.578;2023-05-23T04:41:44;102288.09;;;12.90;100.00
69153;BME280;56261;51.580;4.578;2023-05-23T04:44:10;102293.41;;;12.72;100.00
69153;BME280;56261;51.580;4.578;2023-05-23T04:46:35;102282.56;;;12.73;100.00
69153;BME280;56261;51.580;4.578;2023-05-23T04:49:01;102302.91;;;12.66;100.00
69153;BME280;56261;51.580;4.578;2023-05-23T04:51:28;102293.84;;;12.67;100.00
69153;BME280;56261;51.580;4.578;2023-05-23T04:53:53;102299.22;;;12.67;100.00
69153;BME280;56261;51.580;4.578;2023-05-23T04:56:19;102302.72;;;12.67;100.00
69153;BME280;56261;51.580;4.578;2023-05-23T04:58:45;102312.47;;;12.59;100.00
69153;BME280;56261;51.580;4.578;2023-05-23T05:01:11;102305.50;;;12.48;100.00
69153;BME280;56261;51.580;4.578;2023-05-23T05:03:38;102311.25;;;12.53;100.00
69153;BME280;56261;51.580;4.578;2023-05-23T05:06:04;102303.34;;;12.61;100.00
69153;BME280;56261;51.580;4.578;2023-05-23T05:08:30;102319.41;;;12.52;100.00
69153;BME280;56261;51.580;4.578;2023-05-23T05:10:55;102307.50;;;12.74;100.00
69153;BME280;56261;51.580;4.578;2023-05-23T05:13:20;102313.56;;;12.76;100.00
69153;BME280;56261;51.580;4.578;2023-05-23T05:15:46;102313.56;;;12.76;100.00
69153;BME280;56261;51.580;4.578;2023-05-23T05:18:12;102325.47;;;12.54;100.00
69153;BME280;56261;51.580;4.578;2023-05-23T05:20:37;102327.53;;;12.70;100.00
69153;BME280;56261;51.580;4.578;2023-05-23T05:23:03;102325.91;;;12.49;100.00
69153;BME280;56261;51.580;4.578;2023-05-23T05:25:28;102330.69;;;12.55;100.00
69153;BME280;56261;51.580;4.578;2023-05-23T05:27:59;102324.38;;;12.46;100.00
69153;BME280;56261;51.580;4.578;2023-05-23T05:30:26;102332.41;;;12.46;100.00
69153;BME280;56261;51.580;4.578;2023-05-23T05:32:51;102345.09;;;12.35;100.00
69153;BME280;56261;51.580;4.578;2023-05-23T05:35:17;102339.84;;;12.43;100.00
69153;BME280;56261;51.580;4.578;2023-05-23T05:37:42;102345.91;;;12.45;100.00
69153;BME280;56261;51.580;4.578;2023-05-23T05:40:08;102356.63;;;12.45;100.00
69153;BME280;56261;51.580;4.578;2023-05-23T05:42:34;102349.81;;;12.60;100.00
69153;BME280;56261;51.580;4.578;2023-05-23T05:44:59;102355.13;;;12.70;100.00
69153;BME280;56261;51.580;4.578;2023-05-23T05:47:25;102354.78;;;12.55;100.00
69153;BME280;56261;51.580;4.578;2023-05-23T05:49:51;102357.63;;;12.44;100.00
69153;BME280;56261;51.580;4.578;2023-05-23T05:52:16;102358.47;;;12.44;100.00
69153;BME280;56261;51.580;4.578;2023-05-23T05:54:42;102368.59;;;12.51;100.00
69153;BME280;56261;51.580;4.578;2023-05-23T05:57:07;102357.28;;;12.57;100.00
69153;BME280;56261;51.580;4.578;2023-05-23T05:59:32;102358.25;;;12.65;100.00
69153;BME280;56261;51.580;4.578;2023-05-23T06:01:58;102364.59;;;12.64;100.00
69153;BME280;56261;51.580;4.578;2023-05-23T06:04:23;102366.34;;;12.83;100.00
69153;BME280;56261;51.580;4.578;2023-05-23T06:06:49;102366.06;;;12.86;100.00
69153;BME280;56261;51.580;4.578;2023-05-23T06:09:15;102358.94;;;12.67;100.00
69153;BME280;56261;51.580;4.578;2023-05-23T06:11:40;102369.22;;;12.72;100.00
69153;BME280;56261;51.580;4.578;2023-05-23T06:14:06;102367.56;;;12.61;100.00
69153;BME280;56261;51.580;4.578;2023-05-23T06:16:32;102381.94;;;12.60;100.00
69153;BME280;56261;51.580;4.578;2023-05-23T06:18:57;102371.63;;;12.75;100.00
69153;BME280;56261;51.580;4.578;2023-05-23T06:21:22;102371.75;;;12.74;100.00
69153;BME280;56261;51.580;4.578;2023-05-23T06:23:48;102374.63;;;13.00;100.00
69153;BME280;56261;51.580;4.578;2023-05-23T06:26:13;102373.09;;;12.87;100.00
69153;BME280;56261;51.580;4.578;2023-05-23T06:28:39;102377.03;;;12.93;100.00
69153;BME280;56261;51.580;4.578;2023-05-23T06:31:04;102386.34;;;12.89;100.00
69153;BME280;56261;51.580;4.578;2023-05-23T06:33:30;102379.22;;;12.80;100.00
69153;BME280;56261;51.580;4.578;2023-05-23T06:35:56;102370.88;;;12.83;100.00
69153;BME280;56261;51.580;4.578;2023-05-23T06:38:21;102385.22;;;12.92;100.00
69153;BME280;56261;51.580;4.578;2023-05-23T06:40:47;102385.25;;;12.82;100.00
69153;BME280;56261;51.580;4.578;2023-05-23T06:43:12;102390.50;;;12.74;100.00
69153;BME280;56261;51.580;4.578;2023-05-23T06:45:38;102401.16;;;12.83;100.00
69153;BME280;56261;51.580;4.578;2023-05-23T06:48:03;102396.22;;;12.88;100.00
69153;BME280;56261;51.580;4.578;2023-05-23T06:50:29;102396.22;;;12.88;100.00
69153;BME280;56261;51.580;4.578;2023-05-23T06:52:55;102394.25;;;12.91;100.00
69153;BME280;56261;51.580;4.578;2023-05-23T06:55:21;102408.00;;;13.05;100.00
69153;BME280;56261;51.580;4.578;2023-05-23T06:57:47;102403.69;;;12.85;100.00
69153;BME280;56261;51.580;4.578;2023-05-23T07:00:16;102408.09;;;12.86;100.00
69153;BME280;56261;51.580;4.578;2023-05-23T07:02:42;102411.72;;;12.85;100.00
69153;BME280;56261;51.580;4.578;2023-05-23T07:05:09;102410.06;;;12.84;100.00
69153;BME280;56261;51.580;4.578;2023-05-23T07:07:35;102422.31;;;12.77;100.00
69153;BME280;56261;51.580;4.578;2023-05-23T07:10:00;102421.69;;;12.55;100.00
69153;BME280;56261;51.580;4.578;2023-05-23T07:12:26;102414.63;;;12.54;100.00
69153;BME280;56261;51.580;4.578;2023-05-23T07:14:51;102412.94;;;12.43;100.00
69153;BME280;56261;51.580;4.578;2023-05-23T07:17:16;102426.75;;;12.58;100.00
69153;BME280;56261;51.580;4.578;2023-05-23T07:19:42;102432.06;;;12.78;100.00
69153;BME280;56261;51.580;4.578;2023-05-23T07:22:07;102431.97;;;12.60;100.00
69153;BME280;56261;51.580;4.578;2023-05-23T07:24:32;102435.63;;;12.49;100.00
69153;BME280;56261;51.580;4.578;2023-05-23T07:26:58;102440.84;;;12.51;100.00
69153;BME280;56261;51.580;4.578;2023-05-23T07:29:23;102438.88;;;12.43;100.00
69153;BME280;56261;51.580;4.578;2023-05-23T07:31:49;102431.13;;;12.59;100.00
69153;BME280;56261;51.580;4.578;2023-05-23T07:34:14;102429.88;;;12.44;100.00
69153;BME280;56261;51.580;4.578;2023-05-23T07:36:39;102433.94;;;12.58;100.00
69153;BME280;56261;51.580;4.578;2023-05-23T07:39:06;102440.69;;;12.52;100.00
69153;BME280;56261;51.580;4.578;2023-05-23T07:41:32;102444.06;;;12.54;100.00
69153;BME280;56261;51.580;4.578;2023-05-23T07:43:57;102445.44;;;12.68;100.00
69153;BME280;56261;51.580;4.578;2023-05-23T07:46:23;102435.34;;;12.62;100.00
69153;BME280;56261;51.580;4.578;2023-05-23T07:48:48;102445.88;;;12.63;100.00
69153;BME280;56261;51.580;4.578;2023-05-23T07:51:13;102437.69;;;12.75;100.00
69153;BME280;56261;51.580;4.578;2023-05-23T07:53:39;102445.66;;;12.94;100.00
69153;BME280;56261;51.580;4.578;2023-05-23T07:56:05;102442.38;;;13.10;100.00
69153;BME280;56261;51.580;4.578;2023-05-23T07:58:31;102435.59;;;13.16;100.00
69153;BME280;56261;51.580;4.578;2023-05-23T08:00:56;102441.84;;;12.97;100.00
69153;BME280;56261;51.580;4.578;2023-05-23T08:03:22;102449.94;;;13.34;100.00
69153;BME280;56261;51.580;4.578;2023-05-23T08:05:47;102435.91;;;13.68;100.00
69153;BME280;56261;51.580;4.578;2023-05-23T08:08:14;102420.75;;;13.95;100.00
69153;BME280;56261;51.580;4.578;2023-05-23T08:10:39;102438.84;;;14.10;100.00
69153;BME280;56261;51.580;4.578;2023-05-23T08:13:05;102446.50;;;13.69;100.00
69153;BME280;56261;51.580;4.578;2023-05-23T08:15:31;102435.06;;;13.67;100.00
69153;BME280;56261;51.580;4.578;2023-05-23T08:17:57;102430.88;;;14.37;100.00
69153;BME280;56261;51.580;4.578;2023-05-23T08:20:23;102434.72;;;14.78;100.00
69153;BME280;56261;51.580;4.578;2023-05-23T08:22:56;102416.38;;;15.34;100.00
69153;BME280;56261;51.580;4.578;2023-05-23T08:25:22;102421.97;;;15.57;100.00
69153;BME280;56261;51.580;4.578;2023-05-23T08:27:49;102419.44;;;15.47;100.00
69153;BME280;56261;51.580;4.578;2023-05-23T08:30:14;102428.66;;;16.20;100.00
69153;BME280;56261;51.580;4.578;2023-05-23T08:32:40;102422.38;;;16.93;100.00
69153;BME280;56261;51.580;4.578;2023-05-23T08:35:05;102425.81;;;17.58;100.00
69153;BME280;56261;51.580;4.578;2023-05-23T08:37:31;102431.69;;;16.50;100.00
69153;BME280;56261;51.580;4.578;2023-05-23T08:39:56;102437.69;;;15.78;100.00
69153;BME280;56261;51.580;4.578;2023-05-23T08:42:22;102434.19;;;15.35;100.00
69153;BME280;56261;51.580;4.578;2023-05-23T08:44:48;102435.38;;;15.06;100.00
69153;BME280;56261;51.580;4.578;2023-05-23T08:47:15;102445.84;;;14.83;100.00
69153;BME280;56261;51.580;4.578;2023-05-23T08:49:42;102439.50;;;15.19;100.00
69153;BME280;56261;51.580;4.578;2023-05-23T08:52:11;102443.59;;;15.39;100.00
69153;BME280;56261;51.580;4.578;2023-05-23T08:54:37;102453.66;;;15.71;100.00
69153;BME280;56261;51.580;4.578;2023-05-23T08:57:05;102451.28;;;15.26;100.00
69153;BME280;56261;51.580;4.578;2023-05-23T08:59:32;102450.09;;;15.28;100.00
69153;BME280;56261;51.580;4.578;2023-05-23T09:01:59;102452.66;;;15.04;100.00
69153;BME280;56261;51.580;4.578;2023-05-23T09:04:26;102454.19;;;15.06;100.00
69153;BME280;56261;51.580;4.578;2023-05-23T09:06:54;102454.59;;;15.62;100.00
69153;BME280;56261;51.580;4.578;2023-05-23T09:09:21;102457.28;;;15.20;100.00
69153;BME280;56261;51.580;4.578;2023-05-23T09:11:46;102447.72;;;15.60;100.00
69153;BME280;56261;51.580;4.578;2023-05-23T09:14:12;102459.69;;;15.23;100.00
69153;BME280;56261;51.580;4.578;2023-05-23T09:16:39;102453.81;;;15.27;100.00
69153;BME280;56261;51.580;4.578;2023-05-23T09:19:12;102455.78;;;15.60;100.00
69153;BME280;56261;51.580;4.578;2023-05-23T09:21:44;102454.72;;;15.44;100.00
69153;BME280;56261;51.580;4.578;2023-05-23T09:24:10;102455.38;;;15.46;100.00
69153;BME280;56261;51.580;4.578;2023-05-23T09:26:36;102448.19;;;16.14;100.00
69153;BME280;56261;51.580;4.578;2023-05-23T09:29:05;102438.22;;;17.75;100.00
69153;BME280;56261;51.580;4.578;2023-05-23T09:31:31;102443.44;;;16.90;100.00
69153;BME280;56261;51.580;4.578;2023-05-23T09:33:57;102443.31;;;16.01;100.00
69153;BME280;56261;51.580;4.578;2023-05-23T09:36:26;102458.78;;;15.99;100.00
69153;BME280;56261;51.580;4.578;2023-05-23T09:38:53;102453.91;;;16.60;100.00
69153;BME280;56261;51.580;4.578;2023-05-23T09:41:19;102456.94;;;16.57;100.00
69153;BME280;56261;51.580;4.578;2023-05-23T09:43:49;102460.63;;;16.07;100.00
69153;BME280;56261;51.580;4.578;2023-05-23T09:46:16;102462.69;;;16.46;100.00
69153;BME280;56261;51.580;4.578;2023-05-23T09:48:46;102463.97;;;16.74;100.00
69153;BME280;56261;51.580;4.578;2023-05-23T09:51:12;102470.22;;;16.34;100.00
69153;BME280;56261;51.580;4.578;2023-05-23T09:53:37;102458.31;;;16.61;100.00
69153;BME280;56261;51.580;4.578;2023-05-23T09:56:03;102458.09;;;17.04;100.00
69153;BME280;56261;51.580;4.578;2023-05-23T09:58:29;102455.97;;;17.61;100.00
69153;BME280;56261;51.580;4.578;2023-05-23T10:00:55;102462.59;;;17.19;100.00
69153;BME280;56261;51.580;4.578;2023-05-23T10:03:26;102451.94;;;17.26;100.00
69153;BME280;56261;51.580;4.578;2023-05-23T10:05:58;102459.63;;;16.40;100.00
69153;BME280;56261;51.580;4.578;2023-05-23T10:13:26;102463.13;;;16.00;100.00
69153;BME280;56261;51.580;4.578;2023-05-23T10:16:01;102473.47;;;15.70;100.00
69153;BME280;56261;51.580;4.578;2023-05-23T10:18:34;102469.88;;;16.70;100.00
69153;BME280;56261;51.580;4.578;2023-05-23T10:21:07;102466.38;;;16.28;100.00
69153;BME280;56261;51.580;4.578;2023-05-23T10:23:34;102466.53;;;16.27;100.00
69153;BME280;56261;51.580;4.578;2023-05-23T10:26:02;102467.34;;;16.76;100.00
69153;BME280;56261;51.580;4.578;2023-05-23T10:28:29;102465.66;;;17.08;100.00
69153;BME280;56261;51.580;4.578;2023-05-23T10:30:54;102473.75;;;16.75;100.00
69153;BME280;56261;51.580;4.578;2023-05-23T10:33:20;102466.88;;;16.65;100.00
69153;BME280;56261;51.580;4.578;2023-05-23T10:35:56;102471.94;;;16.92;100.00
69153;BME280;56261;51.580;4.578;2023-05-23T10:38:36;102460.81;;;17.74;100.00
69153;BME280;56261;51.580;4.578;2023-05-23T10:44:01;102464.59;;;18.42;100.00
69153;BME280;56261;51.580;4.578;2023-05-23T10:46:52;102471.13;;;17.31;100.00
69153;BME280;56261;51.580;4.578;2023-05-23T10:49:18;102467.94;;;17.28;100.00
69153;BME280;56261;51.580;4.578;2023-05-23T10:51:50;102477.31;;;16.51;100.00
69153;BME280;56261;51.580;4.578;2023-05-23T10:54:18;102471.25;;;16.57;100.00
69153;BME280;56261;51.580;4.578;2023-05-23T10:56:44;102479.81;;;16.69;100.00
69153;BME280;56261;51.580;4.578;2023-05-23T10:59:19;102468.03;;;16.05;100.00
69153;BME280;56261;51.580;4.578;2023-05-23T11:01:45;102472.41;;;16.06;100.00
69153;BME280;56261;51.580;4.578;2023-05-23T11:04:11;102474.28;;;16.79;100.00
69153;BME280;56261;51.580;4.578;2023-05-23T11:06:41;102472.25;;;16.56;100.00
69153;BME280;56261;51.580;4.578;2023-05-23T11:09:12;102475.56;;;17.08;100.00
69153;BME280;56261;51.580;4.578;2023-05-23T11:11:59;102474.13;;;17.76;100.00
69153;BME280;56261;51.580;4.578;2023-05-23T11:19:37;102474.44;;;16.04;100.00
69153;BME280;56261;51.580;4.578;2023-05-23T11:22:07;102483.13;;;15.81;100.00
69153;BME280;56261;51.580;4.578;2023-05-23T11:27:16;102487.25;;;16.26;100.00
69153;BME280;56261;51.580;4.578;2023-05-23T11:30:12;102478.50;;;16.32;100.00
69153;BME280;56261;51.580;4.578;2023-05-23T11:32:38;102476.63;;;16.16;100.00
69153;BME280;56261;51.580;4.578;2023-05-23T11:35:08;102473.91;;;17.07;100.00
69153;BME280;56261;51.580;4.578;2023-05-23T11:37:35;102481.47;;;17.19;100.00
69153;BME280;56261;51.580;4.578;2023-05-23T11:40:24;102486.34;;;17.16;100.00
69153;BME280;56261;51.580;4.578;2023-05-23T11:42:50;102489.03;;;17.24;100.00
69153;BME280;56261;51.580;4.578;2023-05-23T11:45:18;102481.19;;;16.40;100.00
69153;BME280;56261;51.580;4.578;2023-05-23T11:47:44;102477.47;;;16.58;100.00
69153;BME280;56261;51.580;4.578;2023-05-23T11:50:09;102476.97;;;16.87;100.00
69153;BME280;56261;51.580;4.578;2023-05-23T11:52:35;102496.31;;;16.74;100.00
69153;BME280;56261;51.580;4.578;2023-05-23T11:55:00;102491.28;;;16.47;100.00
69153;BME280;56261;51.580;4.578;2023-05-23T11:57:26;102492.78;;;17.07;100.00
69153;BME280;56261;51.580;4.578;2023-05-23T11:59:52;102482.88;;;16.83;100.00
69153;BME280;56261;51.580;4.578;2023-05-23T12:02:19;102486.66;;;17.21;100.00
69153;BME280;56261;51.580;4.578;2023-05-23T12:04:45;102485.84;;;17.12;100.00
69153;BME280;56261;51.580;4.578;2023-05-23T12:07:10;102496.00;;;16.94;100.00
69153;BME280;56261;51.580;4.578;2023-05-23T12:09:45;102497.19;;;16.42;100.00
69153;BME280;56261;51.580;4.578;2023-05-23T12:12:11;102500.19;;;16.14;100.00
69153;BME280;56261;51.580;4.578;2023-05-23T12:14:37;102500.16;;;16.06;100.00
69153;BME280;56261;51.580;4.578;2023-05-23T12:17:11;102517.38;;;15.71;100.00
69153;BME280;56261;51.580;4.578;2023-05-23T12:19:37;102499.19;;;16.32;100.00
69153;BME280;56261;51.580;4.578;2023-05-23T12:22:06;102509.47;;;16.45;100.00
69153;BME280;56261;51.580;4.578;2023-05-23T12:24:32;102505.09;;;16.60;100.00
69153;BME280;56261;51.580;4.578;2023-05-23T12:26:59;102508.88;;;17.39;100.00
69153;BME280;56261;51.580;4.578;2023-05-23T12:29:32;102506.41;;;17.21;100.00
69153;BME280;56261;51.580;4.578;2023-05-23T12:32:00;102514.19;;;16.92;100.00
69153;BME280;56261;51.580;4.578;2023-05-23T12:34:26;102514.66;;;16.22;100.00
69153;BME280;56261;51.580;4.578;2023-05-23T12:36:59;102503.25;;;16.69;100.00
69153;BME280;56261;51.580;4.578;2023-05-23T12:39:27;102509.13;;;16.64;100.00
69153;BME280;56261;51.580;4.578;2023-05-23T12:41:54;102521.59;;;16.65;100.00
69153;BME280;56261;51.580;4.578;2023-05-23T12:44:21;102504.91;;;17.11;100.00
69153;BME280;56261;51.580;4.578;2023-05-23T12:46:46;102507.81;;;16.93;100.00
69153;BME280;56261;51.580;4.578;2023-05-23T12:49:12;102503.06;;;17.03;100.00
69153;BME280;56261;51.580;4.578;2023-05-23T12:51:39;102508.75;;;17.25;100.00
69153;BME280;56261;51.580;4.578;2023-05-23T12:54:05;102508.28;;;17.13;100.00
69153;BME280;56261;51.580;4.578;2023-05-23T12:56:30;102499.59;;;17.42;100.00
69153;BME280;56261;51.580;4.578;2023-05-23T12:58:56;102496.16;;;17.00;100.00